createdAt,value
2023-05-14T00:00:24.026Z,101107.00
2023-05-14T00:02:51.176Z,101075.88
2023-05-14T00:05:18.331Z,101110.97
2023-05-14T00:07:44.797Z,101114.47
2023-05-14T00:10:11.325Z,101112.63
2023-05-14T00:12:38.193Z,101072.47
2023-05-14T00:15:05.498Z,101110.63
2023-05-14T00:17:32.449Z,101068.41
2023-05-14T00:19:59.507Z,101079.00
2023-05-14T00:22:26.059Z,101115.81
2023-05-14T00:24:52.667Z,101097.09
2023-05-14T00:27:19.487Z,101105.25
2023-05-14T00:29:45.936Z,101103.72
2023-05-14T00:32:12.424Z,101086.44
2023-05-14T00:34:39.489Z,101098.34
2023-05-14T00:37:06.024Z,101096.13
2023-05-14T00:39:33.297Z,101062.94
2023-05-14T00:42:00.808Z,101091.91
2023-05-14T00:44:27.326Z,101091.63
2023-05-14T00:46:54.223Z,101062.69
2023-05-14T00:49:21.600Z,101087.00
2023-05-14T00:51:48.139Z,101054.09
2023-05-14T00:54:16.229Z,101076.19
2023-05-14T00:56:47.113Z,101089.81
2023-05-14T00:59:13.982Z,101094.06
2023-05-14T01:01:41.141Z,101039.25
2023-05-14T01:04:08.402Z,101047.88
2023-05-14T01:07:19.329Z,101084.19
2023-05-14T01:09:53.355Z,101045.19
2023-05-14T01:12:34.293Z,101063.47
2023-05-14T01:15:06.710Z,101077.13
2023-05-14T01:17:37.206Z,101052.09
2023-05-14T01:20:04.319Z,101087.13
2023-05-14T01:22:31.128Z,101082.38
2023-05-14T01:24:57.829Z,101052.22
2023-05-14T01:27:51.697Z,101085.69
2023-05-14T01:30:23.568Z,101060.97
2023-05-14T01:32:52.491Z,101078.66
2023-05-14T01:35:20.735Z,101063.53
2023-05-14T01:37:48.954Z,101082.38
2023-05-14T01:40:15.674Z,101037.50
2023-05-14T01:42:43.262Z,101072.06
2023-05-14T01:45:10.439Z,101069.53
2023-05-14T01:47:36.994Z,101050.84
2023-05-14T01:50:04.122Z,101078.53
2023-05-14T01:52:30.663Z,101070.50
2023-05-14T01:54:58.388Z,101071.38
2023-05-14T01:57:25.096Z,101014.00
2023-05-14T01:59:51.544Z,101024.41
2023-05-14T02:02:18.645Z,101032.03
2023-05-14T02:04:45.636Z,101067.44
2023-05-14T02:07:12.503Z,101045.25
2023-05-14T02:09:40.041Z,101021.19
2023-05-14T02:12:08.075Z,101060.16
2023-05-14T02:14:34.714Z,101059.59
2023-05-14T02:17:01.188Z,101055.50
2023-05-14T02:19:27.649Z,101066.34
2023-05-14T02:21:54.336Z,101055.63
2023-05-14T02:24:20.816Z,101054.78
2023-05-14T02:26:47.947Z,101057.06
2023-05-14T02:29:14.715Z,101053.28
2023-05-14T02:31:41.204Z,101048.34
2023-05-14T02:34:08.004Z,101060.59
2023-05-14T02:36:34.568Z,101061.25
2023-05-14T02:39:01.130Z,101011.16
2023-05-14T02:41:27.719Z,101055.38
2023-05-14T02:43:54.305Z,101025.25
2023-05-14T02:46:21.296Z,101023.72
2023-05-14T02:48:47.870Z,101057.19
2023-05-14T02:51:14.440Z,101017.59
2023-05-14T02:53:41.279Z,101053.84
2023-05-14T02:56:08.114Z,101052.28
2023-05-14T02:58:34.938Z,101052.56
2023-05-14T03:01:01.432Z,101053.97
2023-05-14T03:03:29.938Z,101056.78
2023-05-14T03:05:57.340Z,101055.22
2023-05-14T03:08:23.903Z,101012.84
2023-05-14T03:10:50.794Z,101054.69
2023-05-14T03:13:19.966Z,101051.00
2023-05-14T03:15:47.136Z,101050.28
2023-05-14T03:18:15.068Z,101047.50
2023-05-14T03:20:41.915Z,101025.25
2023-05-14T03:23:08.478Z,101053.53
2023-05-14T03:25:35.430Z,101037.34
2023-05-14T03:28:03.473Z,101053.38
2023-05-14T03:30:30.105Z,101026.16
2023-05-14T03:32:57.076Z,101049.16
2023-05-14T03:35:23.560Z,101051.34
2023-05-14T03:37:50.862Z,101043.47
2023-05-14T03:40:17.979Z,101045.00
2023-05-14T03:42:44.476Z,101008.59
2023-05-14T03:45:11.015Z,101010.84
2023-05-14T03:47:37.930Z,101036.78
2023-05-14T03:50:04.761Z,101033.38
2023-05-14T03:52:31.179Z,101029.47
2023-05-14T03:54:57.814Z,101032.28
2023-05-14T03:57:24.349Z,101003.69
2023-05-14T03:59:51.046Z,100942.44
2023-05-14T04:02:17.819Z,101035.94
2023-05-14T04:04:44.644Z,101039.69
2023-05-14T04:07:11.594Z,101030.91
2023-05-14T04:09:38.052Z,101042.88
2023-05-14T04:12:05.027Z,101015.69
2023-05-14T04:14:31.853Z,101042.41
2023-05-14T04:17:00.118Z,101032.41
2023-05-14T04:19:26.784Z,101040.03
2023-05-14T04:21:53.889Z,100992.22
2023-05-14T04:24:20.390Z,101039.81
2023-05-14T04:26:46.823Z,101033.94
2023-05-14T04:29:13.737Z,101028.88
2023-05-14T04:31:40.337Z,101028.16
2023-05-14T04:34:07.081Z,100979.78
2023-05-14T04:36:33.547Z,101021.03
2023-05-14T04:38:59.992Z,101034.81
2023-05-14T04:41:26.910Z,101034.13
2023-05-14T04:43:55.926Z,101021.06
2023-05-14T04:46:22.527Z,100976.31
2023-05-14T04:48:49.274Z,101023.56
2023-05-14T04:51:15.816Z,101015.84
2023-05-14T04:53:42.632Z,101000.78
2023-05-14T04:56:09.932Z,101020.03
2023-05-14T04:58:36.350Z,101003.88
2023-05-14T05:01:05.193Z,101025.81
2023-05-14T05:03:31.992Z,101023.00
2023-05-14T05:05:58.658Z,100991.19
2023-05-14T05:08:26.347Z,101030.09
2023-05-14T05:10:52.833Z,101030.94
2023-05-14T05:13:19.667Z,101031.66
2023-05-14T05:15:46.632Z,101036.63
2023-05-14T05:18:13.138Z,101043.84
2023-05-14T05:20:39.630Z,101000.94
2023-05-14T05:23:07.207Z,101039.06
2023-05-14T05:25:33.715Z,101007.03
2023-05-14T05:28:00.252Z,101019.94
2023-05-14T05:30:27.277Z,100986.03
2023-05-14T05:32:54.167Z,101018.31
2023-05-14T05:35:20.696Z,101032.38
2023-05-14T05:37:47.188Z,101026.25
2023-05-14T05:40:14.422Z,101024.22
2023-05-14T05:42:41.586Z,101019.75
2023-05-14T05:45:08.911Z,101033.59
2023-05-14T05:47:35.475Z,101026.00
2023-05-14T05:50:02.046Z,101012.34
2023-05-14T05:52:29.163Z,100990.13
2023-05-14T05:54:55.674Z,101042.78
2023-05-14T05:57:25.678Z,101018.09
2023-05-14T05:59:53.232Z,101017.03
2023-05-14T06:02:19.986Z,101032.63
2023-05-14T06:04:46.793Z,101000.03
2023-05-14T06:07:13.815Z,101046.59
2023-05-14T06:09:40.265Z,101016.31
2023-05-14T06:12:07.112Z,101045.16
2023-05-14T06:14:33.967Z,100988.25
2023-05-14T06:17:00.871Z,101047.94
2023-05-14T06:19:27.999Z,101002.94
2023-05-14T06:21:54.744Z,101024.63
2023-05-14T06:24:21.282Z,101007.72
2023-05-14T06:26:49.286Z,101059.78
2023-05-14T06:29:16.101Z,101058.72
2023-05-14T06:31:42.667Z,101062.25
2023-05-14T06:34:09.570Z,101049.41
2023-05-14T06:36:36.072Z,101056.56
2023-05-14T06:39:03.526Z,101057.94
2023-05-14T06:41:30.374Z,101053.19
2023-05-14T06:43:56.889Z,100996.34
2023-05-14T06:46:23.498Z,101055.44
2023-05-14T06:48:50.620Z,101020.28
2023-05-14T06:51:17.209Z,101045.28
2023-05-14T06:53:43.689Z,100998.44
2023-05-14T06:56:10.915Z,101049.81
2023-05-14T06:58:37.418Z,101004.78
2023-05-14T07:01:04.182Z,101030.75
2023-05-14T07:03:31.526Z,101044.09
2023-05-14T07:05:58.072Z,101036.81
2023-05-14T07:08:24.894Z,101036.91
2023-05-14T07:10:52.710Z,101037.22
2023-05-14T07:13:19.189Z,101032.59
2023-05-14T07:15:45.748Z,101028.84
2023-05-14T07:18:12.534Z,100996.25
2023-05-14T07:20:39.353Z,101023.47
2023-05-14T07:23:06.114Z,101015.69
2023-05-14T07:25:32.798Z,101015.78
2023-05-14T07:27:59.307Z,100997.63
2023-05-14T07:30:26.314Z,101008.69
2023-05-14T07:32:53.061Z,100980.94
2023-05-14T07:35:20.260Z,100997.94
2023-05-14T07:37:47.125Z,100951.84
2023-05-14T07:40:13.660Z,100989.47
2023-05-14T07:42:40.330Z,100984.97
2023-05-14T07:45:08.710Z,100985.16
2023-05-14T07:47:35.469Z,100991.78
2023-05-14T07:50:02.355Z,101016.16
2023-05-14T07:52:28.964Z,101008.63
2023-05-14T07:54:55.580Z,100985.03
2023-05-14T07:57:22.962Z,100997.50
2023-05-14T07:59:49.614Z,100978.00
2023-05-14T08:02:16.960Z,100989.25
2023-05-14T08:04:44.942Z,100984.88
2023-05-14T08:07:11.591Z,100981.19
2023-05-14T08:09:38.365Z,100991.31
2023-05-14T08:12:07.435Z,101007.56
2023-05-14T08:14:34.353Z,101003.31
2023-05-14T08:17:01.138Z,100996.16
2023-05-14T08:19:27.846Z,100971.69
2023-05-14T08:21:54.521Z,100995.72
2023-05-14T08:24:21.492Z,100995.00
2023-05-14T08:26:48.163Z,101003.53
2023-05-14T08:29:16.604Z,100974.19
2023-05-14T08:31:44.288Z,101006.88
2023-05-14T08:34:10.931Z,100969.16
2023-05-14T08:36:39.051Z,100980.41
2023-05-14T08:39:07.684Z,101002.00
2023-05-14T08:41:34.756Z,100982.00
2023-05-14T08:44:22.692Z,100995.25
2023-05-14T08:46:49.888Z,100990.44
2023-05-14T08:49:35.679Z,100991.50
2023-05-14T08:52:02.487Z,100983.94
2023-05-14T08:54:32.364Z,100953.22
2023-05-14T08:56:59.595Z,100973.94
2023-05-14T08:59:26.291Z,100966.88
2023-05-14T09:01:54.689Z,100976.78
2023-05-14T09:04:23.819Z,100959.91
2023-05-14T09:06:56.094Z,100972.72
2023-05-14T09:09:23.611Z,100971.84
2023-05-14T09:11:53.643Z,100959.94
2023-05-14T09:14:22.027Z,100956.72
2023-05-14T09:16:50.557Z,100937.63
2023-05-14T09:19:21.737Z,100950.72
2023-05-14T09:21:49.423Z,100946.75
2023-05-14T09:24:23.897Z,100925.59
2023-05-14T09:26:54.600Z,100941.94
2023-05-14T09:29:21.071Z,100937.81
2023-05-14T09:31:48.966Z,100920.34
2023-05-14T09:34:24.446Z,100927.16
2023-05-14T09:36:55.483Z,100918.03
2023-05-14T09:39:23.881Z,100918.59
2023-05-14T09:41:51.843Z,100908.31
2023-05-14T09:44:19.732Z,100905.59
2023-05-14T09:46:47.012Z,100922.78
2023-05-14T09:49:13.729Z,100919.56
2023-05-14T09:51:41.227Z,100889.72
2023-05-14T09:54:08.185Z,100905.53
2023-05-14T09:56:36.209Z,100908.16
2023-05-14T09:59:03.685Z,100911.78
2023-05-14T10:01:31.282Z,100894.44
2023-05-14T10:03:59.547Z,100887.03
2023-05-14T10:06:28.790Z,100895.09
2023-05-14T10:09:01.735Z,100892.19
2023-05-14T10:11:31.430Z,100885.06
2023-05-14T10:14:33.972Z,100888.97
2023-05-14T10:17:01.837Z,100872.25
2023-05-14T10:19:33.428Z,100885.44
2023-05-14T10:22:04.479Z,100886.69
2023-05-14T10:24:31.573Z,100890.66
2023-05-14T10:26:58.766Z,100863.16
2023-05-14T10:29:36.037Z,100867.34
2023-05-14T10:32:07.272Z,100853.00
2023-05-14T10:34:44.024Z,100879.84
2023-05-14T10:37:12.899Z,100856.53
2023-05-14T10:39:51.528Z,100870.84
2023-05-14T10:42:23.318Z,100865.88
2023-05-14T10:44:58.471Z,100867.78
2023-05-14T10:47:28.866Z,100860.84
2023-05-14T10:49:58.294Z,100855.03
2023-05-14T10:52:26.412Z,100861.03
2023-05-14T10:54:59.222Z,100853.78
2023-05-14T10:57:29.750Z,100842.56
2023-05-14T10:59:58.395Z,100831.94
2023-05-14T11:02:27.934Z,100847.06
2023-05-14T11:05:09.161Z,100848.31
2023-05-14T11:07:41.689Z,100838.91
2023-05-14T11:10:10.089Z,100843.94
2023-05-14T11:12:39.132Z,100841.06
2023-05-14T11:15:09.246Z,100827.94
2023-05-14T11:17:36.938Z,100836.88
2023-05-14T11:20:05.505Z,100836.25
2023-05-14T11:22:32.252Z,100831.88
2023-05-14T11:24:58.910Z,100832.31
2023-05-14T11:27:26.301Z,100803.19
2023-05-14T11:29:53.110Z,100833.72
2023-05-14T11:32:20.244Z,100820.06
2023-05-14T11:34:47.340Z,100821.31
2023-05-14T11:37:15.242Z,100812.34
2023-05-14T11:39:49.761Z,100818.97
2023-05-14T11:42:18.641Z,100799.72
2023-05-14T11:44:49.924Z,100805.81
2023-05-14T11:47:18.206Z,100809.59
2023-05-14T11:49:45.101Z,100802.88
2023-05-14T11:52:15.935Z,100786.59
2023-05-14T11:54:43.938Z,100783.03
2023-05-14T11:57:12.921Z,100799.31
2023-05-14T11:59:40.343Z,100798.25
2023-05-14T12:02:12.003Z,100736.84
2023-05-14T12:04:38.796Z,100781.13
2023-05-14T12:07:10.279Z,100786.72
2023-05-14T12:09:40.650Z,100783.66
2023-05-14T12:12:10.017Z,100790.66
2023-05-14T12:14:42.492Z,100764.41
2023-05-14T12:17:19.457Z,100765.41
2023-05-14T12:19:48.296Z,100779.75
2023-05-14T12:22:17.200Z,100793.72
2023-05-14T12:24:44.478Z,100799.91
2023-05-14T12:27:11.972Z,100795.22
2023-05-14T12:29:39.022Z,100785.56
2023-05-14T12:32:09.839Z,100790.53
2023-05-14T12:34:37.697Z,100766.50
2023-05-14T12:37:05.511Z,100777.88
2023-05-14T12:39:34.112Z,100767.03
2023-05-14T12:42:01.312Z,100736.19
2023-05-14T12:44:28.248Z,100771.78
2023-05-14T12:46:55.149Z,100776.44
2023-05-14T12:49:21.654Z,100747.94
2023-05-14T12:51:48.147Z,100746.19
2023-05-14T12:54:15.967Z,100740.38
2023-05-14T12:56:42.862Z,100770.25
2023-05-14T12:59:10.218Z,100733.25
2023-05-14T13:01:38.247Z,100762.91
2023-05-14T13:04:05.626Z,100754.75
2023-05-14T13:06:32.744Z,100756.28
2023-05-14T13:09:01.720Z,100747.25
2023-05-14T13:11:30.310Z,100702.34
2023-05-14T13:13:57.593Z,100712.16
2023-05-14T13:16:25.433Z,100749.50
2023-05-14T13:18:52.405Z,100729.22
2023-05-14T13:21:19.552Z,100733.94
2023-05-14T13:23:47.172Z,100743.22
2023-05-14T13:26:14.228Z,100735.78
2023-05-14T13:28:41.018Z,100742.41
2023-05-14T13:31:12.329Z,100716.53
2023-05-14T13:33:41.570Z,100735.84
2023-05-14T13:36:08.617Z,100737.19
2023-05-14T13:38:35.767Z,100734.97
2023-05-14T13:41:02.732Z,100732.25
2023-05-14T13:43:30.796Z,100732.78
2023-05-14T13:45:57.612Z,100725.47
2023-05-14T13:48:25.734Z,100697.22
2023-05-14T13:50:52.584Z,100707.53
2023-05-14T13:53:23.136Z,100728.94
2023-05-14T13:55:50.424Z,100716.66
2023-05-14T13:58:17.243Z,100688.53
2023-05-14T14:00:43.702Z,100700.34
2023-05-14T14:03:10.325Z,100681.00
2023-05-14T14:05:37.599Z,100666.88
2023-05-14T14:08:13.082Z,100704.41
2023-05-14T14:10:48.369Z,100684.09
2023-05-14T14:13:15.419Z,100702.44
2023-05-14T14:15:42.636Z,100688.06
2023-05-14T14:18:09.131Z,100560.97
2023-05-14T14:20:36.230Z,100698.25
2023-05-14T14:23:02.769Z,100700.94
2023-05-14T14:25:29.374Z,100697.84
2023-05-14T14:27:55.959Z,100670.78
2023-05-14T14:30:22.464Z,100684.06
2023-05-14T14:32:49.605Z,100667.31
2023-05-14T14:35:17.812Z,100689.91
2023-05-14T14:37:48.957Z,100681.53
2023-05-14T14:40:16.684Z,100687.88
2023-05-14T14:42:43.584Z,100676.84
2023-05-14T14:45:10.495Z,100682.88
2023-05-14T14:47:37.594Z,100671.34
2023-05-14T14:50:04.807Z,100650.44
2023-05-14T14:52:31.683Z,100664.69
2023-05-14T14:54:58.857Z,100678.91
2023-05-14T14:57:26.682Z,100682.91
2023-05-14T14:59:53.718Z,100644.03
2023-05-14T15:02:20.308Z,100658.34
2023-05-14T15:04:46.806Z,100677.22
2023-05-14T15:07:15.922Z,100658.28
2023-05-14T15:09:42.836Z,100671.03
2023-05-14T15:12:10.755Z,100651.28
2023-05-14T15:14:37.962Z,100668.56
2023-05-14T15:17:04.681Z,100674.22
2023-05-14T15:19:32.254Z,100651.09
2023-05-14T15:21:59.185Z,100676.63
2023-05-14T15:24:26.210Z,100648.13
2023-05-14T15:26:53.556Z,100615.38
2023-05-14T15:29:20.605Z,100667.16
2023-05-14T15:31:47.382Z,100666.19
2023-05-14T15:34:13.986Z,100669.81
2023-05-14T15:36:40.990Z,100672.09
2023-05-14T15:39:10.153Z,100653.97
2023-05-14T15:41:36.669Z,100646.59
2023-05-14T15:44:03.169Z,100629.81
2023-05-14T15:46:30.470Z,100623.84
2023-05-14T15:48:57.894Z,100650.69
2023-05-14T15:51:24.391Z,100665.47
2023-05-14T15:53:53.102Z,100657.28
2023-05-14T15:56:20.781Z,100639.88
2023-05-14T15:58:48.751Z,100659.38
2023-05-14T16:01:15.304Z,100652.47
2023-05-14T16:03:42.210Z,100647.72
2023-05-14T16:06:08.852Z,100629.13
2023-05-14T16:08:35.459Z,100634.31
2023-05-14T16:11:02.480Z,100662.50
2023-05-14T16:13:28.955Z,100609.50
2023-05-14T16:15:55.631Z,100632.56
2023-05-14T16:18:22.219Z,100664.50
2023-05-14T16:20:48.814Z,100613.94
2023-05-14T16:23:15.596Z,100648.28
2023-05-14T16:25:42.142Z,100597.13
2023-05-14T16:28:08.799Z,100650.44
2023-05-14T16:30:35.661Z,100655.47
2023-05-14T16:33:02.229Z,100624.44
2023-05-14T16:35:29.094Z,100649.47
2023-05-14T16:37:56.681Z,100654.13
2023-05-14T16:40:24.093Z,100630.00
2023-05-14T16:42:51.674Z,100654.50
2023-05-14T16:45:18.920Z,100662.22
2023-05-14T16:47:45.583Z,100616.56
2023-05-14T16:50:12.562Z,100657.84
2023-05-14T16:52:39.073Z,100659.06
2023-05-14T16:55:06.604Z,100661.34
2023-05-14T16:57:34.335Z,100662.63
2023-05-14T17:00:00.815Z,100666.72
2023-05-14T17:02:27.388Z,100652.00
2023-05-14T17:04:55.238Z,100658.22
2023-05-14T17:07:21.819Z,100613.53
2023-05-14T17:09:48.690Z,100641.69
2023-05-14T17:12:15.327Z,100648.34
2023-05-14T17:14:41.866Z,100654.06
2023-05-14T17:17:08.724Z,100666.34
2023-05-14T17:19:35.192Z,100651.75
2023-05-14T17:22:03.938Z,100671.59
2023-05-14T17:24:30.531Z,100648.00
2023-05-14T17:26:57.093Z,100683.59
2023-05-14T17:29:24.055Z,100673.94
2023-05-14T17:31:51.012Z,100679.13
2023-05-14T17:34:17.907Z,100681.16
2023-05-14T17:36:44.622Z,100637.91
2023-05-14T17:39:11.080Z,100639.13
2023-05-14T17:41:37.543Z,100673.78
2023-05-14T17:44:04.900Z,100665.44
2023-05-14T17:46:31.485Z,100670.56
2023-05-14T17:48:58.344Z,100656.66
2023-05-14T17:51:25.209Z,100673.31
2023-05-14T17:53:51.659Z,100640.28
2023-05-14T17:56:18.700Z,100653.06
2023-05-14T17:58:46.134Z,100651.06
2023-05-14T18:01:12.953Z,100646.69
2023-05-14T18:03:39.635Z,100631.59
2023-05-14T18:06:06.635Z,100669.00
2023-05-14T18:08:33.159Z,100672.19
2023-05-14T18:11:00.768Z,100639.47
2023-05-14T18:13:27.273Z,100662.91
2023-05-14T18:15:54.324Z,100599.69
2023-05-14T18:18:21.713Z,100669.59
2023-05-14T18:20:49.344Z,100671.69
2023-05-14T18:23:16.173Z,100677.00
2023-05-14T18:25:42.967Z,100627.41
2023-05-14T18:28:09.669Z,100654.16
2023-05-14T18:30:36.529Z,100676.50
2023-05-14T18:33:03.372Z,100676.38
2023-05-14T18:35:30.858Z,100648.06
2023-05-14T18:37:57.305Z,100640.88
2023-05-14T18:40:24.028Z,100683.31
2023-05-14T18:42:50.794Z,100631.84
2023-05-14T18:45:17.384Z,100650.91
2023-05-14T18:47:44.005Z,100641.78
2023-05-14T18:50:11.132Z,100645.66
2023-05-14T18:52:38.150Z,100685.31
2023-05-14T18:55:05.134Z,100685.25
2023-05-14T18:57:34.879Z,100689.16
2023-05-14T19:00:01.985Z,100696.84
2023-05-14T19:02:28.687Z,100696.13
2023-05-14T19:04:55.565Z,100691.69
2023-05-14T19:07:22.208Z,100696.03
2023-05-14T19:09:49.134Z,100689.97
2023-05-14T19:12:16.083Z,100690.13
2023-05-14T19:14:42.675Z,100702.38
2023-05-14T19:17:09.448Z,100675.03
2023-05-14T19:19:36.453Z,100701.84
2023-05-14T19:22:03.266Z,100704.09
2023-05-14T19:24:30.188Z,100702.56
2023-05-14T19:26:56.722Z,100699.88
2023-05-14T19:29:23.287Z,100704.94
2023-05-14T19:31:49.989Z,100676.34
2023-05-14T19:34:16.766Z,100700.38
2023-05-14T19:36:43.218Z,100672.44
2023-05-14T19:39:09.789Z,100703.16
2023-05-14T19:41:36.548Z,100705.19
2023-05-14T19:44:03.632Z,100700.66
2023-05-14T19:46:30.297Z,100658.78
2023-05-14T19:48:56.766Z,100674.06
2023-05-14T19:51:23.244Z,100705.88
2023-05-14T19:53:49.996Z,100643.28
2023-05-14T19:56:16.518Z,100692.66
2023-05-14T19:58:44.186Z,100671.09
2023-05-14T20:01:11.941Z,100693.38
2023-05-14T20:03:38.598Z,100707.88
2023-05-14T20:06:06.577Z,100700.56
2023-05-14T20:08:33.322Z,100658.97
2023-05-14T20:10:59.816Z,100705.66
2023-05-14T20:13:27.113Z,100703.78
2023-05-14T20:15:55.134Z,100703.69
2023-05-14T20:18:22.116Z,100650.31
2023-05-14T20:20:49.017Z,100705.69
2023-05-14T20:23:15.673Z,100701.16
2023-05-14T20:25:43.053Z,100650.16
2023-05-14T20:28:10.202Z,100685.13
2023-05-14T20:30:36.820Z,100701.56
2023-05-14T20:33:03.936Z,100699.94
2023-05-14T20:35:31.067Z,100677.81
2023-05-14T20:37:57.745Z,100706.84
2023-05-14T20:40:24.755Z,100688.53
2023-05-14T20:42:51.494Z,100675.81
2023-05-14T20:45:18.421Z,100660.84
2023-05-14T20:47:44.961Z,100694.75
2023-05-14T20:50:11.812Z,100675.53
2023-05-14T20:52:38.601Z,100691.38
2023-05-14T20:55:07.458Z,100690.53
2023-05-14T20:57:35.130Z,100655.16
2023-05-14T21:00:02.417Z,100671.50
2023-05-14T21:02:28.986Z,100638.00
2023-05-14T21:04:55.936Z,100685.03
2023-05-14T21:07:22.681Z,100668.16
2023-05-14T21:09:52.664Z,100647.53
2023-05-14T21:12:19.867Z,100667.47
2023-05-14T21:14:46.533Z,100679.06
2023-05-14T21:17:13.525Z,100625.88
2023-05-14T21:19:40.288Z,100641.69
2023-05-14T21:22:07.347Z,100678.53
2023-05-14T21:24:34.283Z,100647.47
2023-05-14T21:27:00.736Z,100649.75
2023-05-14T21:29:27.287Z,100642.59
2023-05-14T21:31:54.151Z,100638.22
2023-05-14T21:34:20.759Z,100675.81
2023-05-14T21:36:47.753Z,100672.28
2023-05-14T21:39:14.243Z,100670.31
2023-05-14T21:41:41.314Z,100667.78
2023-05-14T21:44:07.954Z,100641.81
2023-05-14T21:46:34.527Z,100632.59
2023-05-14T21:49:01.159Z,100648.19
2023-05-14T21:51:28.280Z,100600.44
2023-05-14T21:53:54.768Z,100589.66
2023-05-14T21:56:22.454Z,100649.66
2023-05-14T21:58:49.366Z,100622.84
2023-05-14T22:01:15.819Z,100650.31
2023-05-14T22:03:42.859Z,100656.72
2023-05-14T22:06:09.445Z,100658.44
2023-05-14T22:08:36.083Z,100656.38
2023-05-14T22:11:02.944Z,100593.47
2023-05-14T22:13:29.501Z,100604.38
2023-05-14T22:16:05.202Z,100652.66
2023-05-14T22:18:39.317Z,100620.94
2023-05-14T22:21:06.195Z,100655.09
2023-05-14T22:23:32.709Z,100636.94
2023-05-14T22:25:59.217Z,100658.75
2023-05-14T22:28:26.047Z,100649.53
2023-05-14T22:30:52.746Z,100638.94
2023-05-14T22:33:19.363Z,100640.63
2023-05-14T22:35:46.369Z,100636.13
2023-05-14T22:38:13.801Z,100619.28
2023-05-14T22:40:40.466Z,100633.00
2023-05-14T22:43:07.300Z,100636.94
2023-05-14T22:45:33.789Z,100615.78
2023-05-14T22:48:00.341Z,100601.38
2023-05-14T22:50:27.074Z,100567.31
2023-05-14T22:52:53.517Z,100617.34
2023-05-14T22:55:20.200Z,100575.69
2023-05-14T22:57:46.766Z,100617.97
2023-05-14T23:00:14.543Z,100617.13
2023-05-14T23:02:41.123Z,100579.53
2023-05-14T23:05:08.397Z,100614.59
2023-05-14T23:07:35.296Z,100596.66
2023-05-14T23:10:01.923Z,100608.09
2023-05-14T23:12:28.493Z,100552.03
2023-05-14T23:14:55.433Z,100613.81
2023-05-14T23:17:22.209Z,100610.44
2023-05-14T23:19:48.938Z,100615.47
2023-05-14T23:22:15.901Z,100608.88
2023-05-14T23:24:42.355Z,100609.75
2023-05-14T23:27:08.948Z,100614.94
2023-05-14T23:29:36.700Z,100596.66
2023-05-14T23:32:03.340Z,100606.09
2023-05-14T23:34:29.995Z,100561.44
2023-05-14T23:36:57.161Z,100619.47
2023-05-14T23:39:23.685Z,100608.28
2023-05-14T23:41:50.510Z,100604.66
2023-05-14T23:44:16.962Z,100601.53
2023-05-14T23:46:43.732Z,100594.44
2023-05-14T23:49:11.090Z,100588.94
2023-05-14T23:51:37.772Z,100590.56
2023-05-14T23:54:04.645Z,100563.97
2023-05-14T23:56:31.169Z,100593.28
2023-05-14T23:58:57.935Z,100589.25
